sensor_id;sensor_type;location;lat;lon;timestamp;temperature;humidity
65472;DHT22;52068;50.710;14.492;2023-07-29T00:00:19;22.97;56.33
65472;DHT22;52068;50.710;14.492;2023-07-29T00:02:45;22.97;56.20
65472;DHT22;52068;50.710;14.492;2023-07-29T00:05:11;22.97;56.28
65472;DHT22;52068;50.710;14.492;2023-07-29T00:07:36;22.97;56.19
65472;DHT22;52068;50.710;14.492;2023-07-29T00:10:02;22.94;56.36
65472;DHT22;52068;50.710;14.492;2023-07-29T00:12:28;22.96;56.37
65472;DHT22;52068;50.710;14.492;2023-07-29T00:14:54;22.94;56.39
65472;DHT22;52068;50.710;14.492;2023-07-29T00:17:19;22.92;56.35
65472;DHT22;52068;50.710;14.492;2023-07-29T00:19:46;22.93;56.33
65472;DHT22;52068;50.710;14.492;2023-07-29T00:22:11;22.93;56.34
65472;DHT22;52068;50.710;14.492;2023-07-29T00:24:37;22.90;56.30
65472;DHT22;52068;50.710;14.492;2023-07-29T00:27:02;22.90;56.41
65472;DHT22;52068;50.710;14.492;2023-07-29T00:29:27;22.87;56.36
65472;DHT22;52068;50.710;14.492;2023-07-29T00:31:53;22.86;56.29
65472;DHT22;52068;50.710;14.492;2023-07-29T00:34:18;22.87;56.42
65472;DHT22;52068;50.710;14.492;2023-07-29T00:36:45;22.86;56.45
65472;DHT22;52068;50.710;14.492;2023-07-29T00:39:11;22.86;56.44
65472;DHT22;52068;50.710;14.492;2023-07-29T00:41:36;22.84;56.84
65472;DHT22;52068;50.710;14.492;2023-07-29T00:44:02;22.86;56.75
65472;DHT22;52068;50.710;14.492;2023-07-29T00:46:28;22.80;56.82
65472;DHT22;52068;50.710;14.492;2023-07-29T00:48:54;22.82;56.92
65472;DHT22;52068;50.710;14.492;2023-07-29T00:51:19;22.83;57.18
65472;DHT22;52068;50.710;14.492;2023-07-29T00:53:45;22.82;57.00
65472;DHT22;52068;50.710;14.492;2023-07-29T00:56:10;22.77;57.16
65472;DHT22;52068;50.710;14.492;2023-07-29T00:58:36;22.82;57.01
65472;DHT22;52068;50.710;14.492;2023-07-29T01:01:01;22.82;57.08
65472;DHT22;52068;50.710;14.492;2023-07-29T01:03:27;22.80;57.24
65472;DHT22;52068;50.710;14.492;2023-07-29T01:09:02;22.80;57.26
65472;DHT22;52068;50.710;14.492;2023-07-29T01:14:21;22.76;57.23
65472;DHT22;52068;50.710;14.492;2023-07-29T01:16:57;22.76;57.35
65472;DHT22;52068;50.710;14.492;2023-07-29T01:21:57;22.77;57.55
65472;DHT22;52068;50.710;14.492;2023-07-29T01:24:23;22.77;57.17
65472;DHT22;52068;50.710;14.492;2023-07-29T01:26:48;22.77;57.19
65472;DHT22;52068;50.710;14.492;2023-07-29T01:29:14;22.76;57.30
65472;DHT22;52068;50.710;14.492;2023-07-29T01:31:43;22.76;57.02
65472;DHT22;52068;50.710;14.492;2023-07-29T01:34:15;22.77;57.02
65472;DHT22;52068;50.710;14.492;2023-07-29T01:36:43;22.74;57.21
65472;DHT22;52068;50.710;14.492;2023-07-29T01:39:11;22.72;57.05
65472;DHT22;52068;50.710;14.492;2023-07-29T01:41:37;22.72;57.12
65472;DHT22;52068;50.710;14.492;2023-07-29T01:44:03;22.70;57.43
65472;DHT22;52068;50.710;14.492;2023-07-29T01:46:29;22.73;57.29
65472;DHT22;52068;50.710;14.492;2023-07-29T01:48:57;22.70;56.90
65472;DHT22;52068;50.710;14.492;2023-07-29T01:51:22;22.69;56.58
65472;DHT22;52068;50.710;14.492;2023-07-29T01:53:47;22.67;56.49
65472;DHT22;52068;50.710;14.492;2023-07-29T01:56:13;22.67;56.51
65472;DHT22;52068;50.710;14.492;2023-07-29T01:58:38;22.66;56.47
65472;DHT22;52068;50.710;14.492;2023-07-29T02:01:03;22.64;56.40
65472;DHT22;52068;50.710;14.492;2023-07-29T02:03:29;22.62;56.40
65472;DHT22;52068;50.710;14.492;2023-07-29T02:05:54;22.64;56.39
65472;DHT22;52068;50.710;14.492;2023-07-29T02:08:19;22.62;56.40
65472;DHT22;52068;50.710;14.492;2023-07-29T02:10:45;22.62;56.43
65472;DHT22;52068;50.710;14.492;2023-07-29T02:13:11;22.63;56.40
65472;DHT22;52068;50.710;14.492;2023-07-29T02:15:36;22.62;56.46
65472;DHT22;52068;50.710;14.492;2023-07-29T02:18:02;22.57;56.44
65472;DHT22;52068;50.710;14.492;2023-07-29T02:20:28;22.60;56.49
65472;DHT22;52068;50.710;14.492;2023-07-29T02:22:53;22.60;56.55
65472;DHT22;52068;50.710;14.492;2023-07-29T02:25:19;22.60;56.55
65472;DHT22;52068;50.710;14.492;2023-07-29T02:27:45;22.60;56.53
65472;DHT22;52068;50.710;14.492;2023-07-29T02:30:10;22.57;56.47
65472;DHT22;52068;50.710;14.492;2023-07-29T02:32:37;22.59;56.50
65472;DHT22;52068;50.710;14.492;2023-07-29T02:35:03;22.56;56.48
65472;DHT22;52068;50.710;14.492;2023-07-29T02:37:28;22.57;56.45
65472;DHT22;52068;50.710;14.492;2023-07-29T02:39:54;22.55;56.45
65472;DHT22;52068;50.710;14.492;2023-07-29T02:42:19;22.56;56.50
65472;DHT22;52068;50.710;14.492;2023-07-29T02:44:44;22.55;56.48
65472;DHT22;52068;50.710;14.492;2023-07-29T02:47:10;22.52;56.43
65472;DHT22;52068;50.710;14.492;2023-07-29T02:49:35;22.52;56.45
65472;DHT22;52068;50.710;14.492;2023-07-29T02:52:00;22.49;56.48
65472;DHT22;52068;50.710;14.492;2023-07-29T02:54:26;22.46;56.51
65472;DHT22;52068;50.710;14.492;2023-07-29T02:56:51;22.49;56.55
65472;DHT22;52068;50.710;14.492;2023-07-29T02:59:17;22.48;56.61
65472;DHT22;52068;50.710;14.492;2023-07-29T03:01:42;22.48;56.60
65472;DHT22;52068;50.710;14.492;2023-07-29T03:04:07;22.45;56.63
65472;DHT22;52068;50.710;14.492;2023-07-29T03:06:33;22.42;56.60
65472;DHT22;52068;50.710;14.492;2023-07-29T03:08:58;22.42;56.52
65472;DHT22;52068;50.710;14.492;2023-07-29T03:11:24;22.42;56.66
65472;DHT22;52068;50.710;14.492;2023-07-29T03:13:49;22.38;56.71
65472;DHT22;52068;50.710;14.492;2023-07-29T03:16:17;22.41;56.72
65472;DHT22;52068;50.710;14.492;2023-07-29T03:18:43;22.38;56.59
65472;DHT22;52068;50.710;14.492;2023-07-29T03:21:09;22.36;56.71
65472;DHT22;52068;50.710;14.492;2023-07-29T03:23:35;22.36;56.71
65472;DHT22;52068;50.710;14.492;2023-07-29T03:26:02;22.38;56.72
65472;DHT22;52068;50.710;14.492;2023-07-29T03:28:31;22.38;56.60
65472;DHT22;52068;50.710;14.492;2023-07-29T03:30:57;22.33;56.68
65472;DHT22;52068;50.710;14.492;2023-07-29T03:33:24;22.32;56.66
65472;DHT22;52068;50.710;14.492;2023-07-29T03:35:49;22.35;56.65
65472;DHT22;52068;50.710;14.492;2023-07-29T03:38:15;22.33;56.68
65472;DHT22;52068;50.710;14.492;2023-07-29T03:40:41;22.31;56.69
65472;DHT22;52068;50.710;14.492;2023-07-29T03:43:07;22.31;56.66
65472;DHT22;52068;50.710;14.492;2023-07-29T03:45:33;22.31;56.59
65472;DHT22;52068;50.710;14.492;2023-07-29T03:47:59;22.31;56.66
65472;DHT22;52068;50.710;14.492;2023-07-29T03:50:25;22.29;56.64
65472;DHT22;52068;50.710;14.492;2023-07-29T03:52:50;22.28;56.71
65472;DHT22;52068;50.710;14.492;2023-07-29T03:55:16;22.31;56.69
65472;DHT22;52068;50.710;14.492;2023-07-29T03:57:41;22.28;56.72
65472;DHT22;52068;50.710;14.492;2023-07-29T04:00:07;22.29;56.61
65472;DHT22;52068;50.710;14.492;2023-07-29T04:02:34;22.28;56.67
65472;DHT22;52068;50.710;14.492;2023-07-29T04:05:02;22.29;56.69
65472;DHT22;52068;50.710;14.492;2023-07-29T04:07:28;22.29;56.67
65472;DHT22;52068;50.710;14.492;2023-07-29T04:09:55;22.29;56.75
65472;DHT22;52068;50.710;14.492;2023-07-29T04:12:20;22.26;56.75
65472;DHT22;52068;50.710;14.492;2023-07-29T04:14:46;22.29;56.88
65472;DHT22;52068;50.710;14.492;2023-07-29T04:17:12;22.28;56.89
65472;DHT22;52068;50.710;14.492;2023-07-29T04:19:37;22.29;56.92
65472;DHT22;52068;50.710;14.492;2023-07-29T04:22:03;22.28;56.93
65472;DHT22;52068;50.710;14.492;2023-07-29T04:24:28;22.29;56.92
65472;DHT22;52068;50.710;14.492;2023-07-29T04:26:54;22.28;56.89
65472;DHT22;52068;50.710;14.492;2023-07-29T04:29:19;22.26;56.92
65472;DHT22;52068;50.710;14.492;2023-07-29T04:31:45;22.29;56.93
65472;DHT22;52068;50.710;14.492;2023-07-29T04:34:11;22.28;56.94
65472;DHT22;52068;50.710;14.492;2023-07-29T04:36:37;22.28;56.99
65472;DHT22;52068;50.710;14.492;2023-07-29T04:39:02;22.31;56.99
65472;DHT22;52068;50.710;14.492;2023-07-29T04:41:28;22.32;56.88
65472;DHT22;52068;50.710;14.492;2023-07-29T04:43:53;22.32;57.01
65472;DHT22;52068;50.710;14.492;2023-07-29T04:46:18;22.32;56.88
65472;DHT22;52068;50.710;14.492;2023-07-29T04:48:44;22.33;56.96
65472;DHT22;52068;50.710;14.492;2023-07-29T04:51:09;22.35;56.95
65472;DHT22;52068;50.710;14.492;2023-07-29T04:53:34;22.33;56.99
65472;DHT22;52068;50.710;14.492;2023-07-29T04:56:02;22.35;56.98
65472;DHT22;52068;50.710;14.492;2023-07-29T04:58:27;22.35;57.08
65472;DHT22;52068;50.710;14.492;2023-07-29T05:00:55;22.36;57.14
65472;DHT22;52068;50.710;14.492;2023-07-29T05:03:20;22.38;57.14
65472;DHT22;52068;50.710;14.492;2023-07-29T05:05:46;22.38;57.04
65472;DHT22;52068;50.710;14.492;2023-07-29T05:08:11;22.36;57.12
65472;DHT22;52068;50.710;14.492;2023-07-29T05:10:36;22.41;57.00
65472;DHT22;52068;50.710;14.492;2023-07-29T05:13:02;22.38;57.24
65472;DHT22;52068;50.710;14.492;2023-07-29T05:15:27;22.39;57.43
65472;DHT22;52068;50.710;14.492;2023-07-29T05:17:53;22.43;57.53
65472;DHT22;52068;50.710;14.492;2023-07-29T05:20:18;22.41;57.36
65472;DHT22;52068;50.710;14.492;2023-07-29T05:22:44;22.42;57.35
65472;DHT22;52068;50.710;14.492;2023-07-29T05:25:09;22.43;57.35
65472;DHT22;52068;50.710;14.492;2023-07-29T05:27:34;22.45;57.45
65472;DHT22;52068;50.710;14.492;2023-07-29T05:30:00;22.43;57.07
65472;DHT22;52068;50.710;14.492;2023-07-29T05:32:25;22.43;56.97
65472;DHT22;52068;50.710;14.492;2023-07-29T05:34:51;22.45;57.09
65472;DHT22;52068;50.710;14.492;2023-07-29T05:37:16;22.46;57.08
65472;DHT22;52068;50.710;14.492;2023-07-29T05:39:41;22.49;57.11
65472;DHT22;52068;50.710;14.492;2023-07-29T05:42:07;22.51;57.41
65472;DHT22;52068;50.710;14.492;2023-07-29T05:44:33;22.52;57.22
65472;DHT22;52068;50.710;14.492;2023-07-29T05:46:58;22.55;57.28
65472;DHT22;52068;50.710;14.492;2023-07-29T05:49:24;22.56;57.09
65472;DHT22;52068;50.710;14.492;2023-07-29T05:51:49;22.55;57.31
65472;DHT22;52068;50.710;14.492;2023-07-29T05:54:18;22.57;56.96
65472;DHT22;52068;50.710;14.492;2023-07-29T05:56:43;22.57;56.93
65472;DHT22;52068;50.710;14.492;2023-07-29T05:59:09;22.59;56.90
65472;DHT22;52068;50.710;14.492;2023-07-29T06:01:34;22.62;56.88
65472;DHT22;52068;50.710;14.492;2023-07-29T06:04:00;22.62;57.22
65472;DHT22;52068;50.710;14.492;2023-07-29T06:06:25;22.64;57.12
65472;DHT22;52068;50.710;14.492;2023-07-29T06:08:51;22.64;57.73
65472;DHT22;52068;50.710;14.492;2023-07-29T06:11:16;22.70;57.60
65472;DHT22;52068;50.710;14.492;2023-07-29T06:13:42;22.74;57.18
65472;DHT22;52068;50.710;14.492;2023-07-29T06:16:07;22.77;56.44
65472;DHT22;52068;50.710;14.492;2023-07-29T06:18:32;22.83;55.94
65472;DHT22;52068;50.710;14.492;2023-07-29T06:20:58;22.92;55.64
65472;DHT22;52068;50.710;14.492;2023-07-29T06:23:23;22.96;55.42
65472;DHT22;52068;50.710;14.492;2023-07-29T06:25:49;23.03;55.19
65472;DHT22;52068;50.710;14.492;2023-07-29T06:28:14;23.10;55.09
65472;DHT22;52068;50.710;14.492;2023-07-29T06:30:39;23.15;54.95
65472;DHT22;52068;50.710;14.492;2023-07-29T06:33:05;23.23;54.87
65472;DHT22;52068;50.710;14.492;2023-07-29T06:35:31;23.28;54.83
65472;DHT22;52068;50.710;14.492;2023-07-29T06:37:56;23.33;54.93
65472;DHT22;52068;50.710;14.492;2023-07-29T06:40:22;23.35;54.92
65472;DHT22;52068;50.710;14.492;2023-07-29T06:42:47;23.40;54.87
65472;DHT22;52068;50.710;14.492;2023-07-29T06:45:13;23.45;54.99
65472;DHT22;52068;50.710;14.492;2023-07-29T06:47:38;23.47;55.10
65472;DHT22;52068;50.710;14.492;2023-07-29T06:50:04;23.51;55.14
65472;DHT22;52068;50.710;14.492;2023-07-29T06:52:29;23.54;55.31
65472;DHT22;52068;50.710;14.492;2023-07-29T06:54:55;23.55;55.41
65472;DHT22;52068;50.710;14.492;2023-07-29T06:57:20;23.58;55.52
65472;DHT22;52068;50.710;14.492;2023-07-29T06:59:45;23.59;55.54
65472;DHT22;52068;50.710;14.492;2023-07-29T07:02:11;23.64;55.63
65472;DHT22;52068;50.710;14.492;2023-07-29T07:04:36;23.65;55.65
65472;DHT22;52068;50.710;14.492;2023-07-29T07:07:02;23.69;55.73
65472;DHT22;52068;50.710;14.492;2023-07-29T07:09:27;23.71;55.85
65472;DHT22;52068;50.710;14.492;2023-07-29T07:11:52;23.72;56.01
65472;DHT22;52068;50.710;14.492;2023-07-29T07:14:18;23.75;56.06
65472;DHT22;52068;50.710;14.492;2023-07-29T07:16:43;23.75;56.45
65472;DHT22;52068;50.710;14.492;2023-07-29T07:19:09;23.72;56.17
65472;DHT22;52068;50.710;14.492;2023-07-29T07:21:34;23.75;57.42
65472;DHT22;52068;50.710;14.492;2023-07-29T07:24:00;23.78;57.03
65472;DHT22;52068;50.710;14.492;2023-07-29T07:26:25;23.78;56.75
65472;DHT22;52068;50.710;14.492;2023-07-29T07:28:50;23.79;56.57
65472;DHT22;52068;50.710;14.492;2023-07-29T07:31:16;23.81;56.65
65472;DHT22;52068;50.710;14.492;2023-07-29T07:33:42;23.81;56.71
65472;DHT22;52068;50.710;14.492;2023-07-29T07:36:07;23.82;57.28
65472;DHT22;52068;50.710;14.492;2023-07-29T07:38:32;23.88;56.89
65472;DHT22;52068;50.710;14.492;2023-07-29T07:40:58;23.89;57.33
65472;DHT22;52068;50.710;14.492;2023-07-29T07:43:24;23.89;58.27
65472;DHT22;52068;50.710;14.492;2023-07-29T07:45:49;23.89;58.60
65472;DHT22;52068;50.710;14.492;2023-07-29T07:48:15;23.93;58.25
65472;DHT22;52068;50.710;14.492;2023-07-29T07:50:42;23.90;58.69
65472;DHT22;52068;50.710;14.492;2023-07-29T07:53:07;23.93;58.21
65472;DHT22;52068;50.710;14.492;2023-07-29T07:55:33;23.95;58.02
65472;DHT22;52068;50.710;14.492;2023-07-29T07:57:58;23.95;57.41
65472;DHT22;52068;50.710;14.492;2023-07-29T08:00:23;23.98;56.80
65472;DHT22;52068;50.710;14.492;2023-07-29T08:02:49;23.96;56.96
65472;DHT22;52068;50.710;14.492;2023-07-29T08:05:14;23.99;58.74
65472;DHT22;52068;50.710;14.492;2023-07-29T08:07:40;23.98;59.04
65472;DHT22;52068;50.710;14.492;2023-07-29T08:10:06;23.96;59.65
65472;DHT22;52068;50.710;14.492;2023-07-29T08:12:32;23.98;58.86
65472;DHT22;52068;50.710;14.492;2023-07-29T08:14:57;23.93;59.24
65472;DHT22;52068;50.710;14.492;2023-07-29T08:17:23;23.95;59.35
65472;DHT22;52068;50.710;14.492;2023-07-29T08:19:48;23.92;59.16
65472;DHT22;52068;50.710;14.492;2023-07-29T08:22:14;23.95;59.18
65472;DHT22;52068;50.710;14.492;2023-07-29T08:24:39;23.99;59.00
65472;DHT22;52068;50.710;14.492;2023-07-29T08:27:05;24.01;59.01
65472;DHT22;52068;50.710;14.492;2023-07-29T08:29:31;24.01;57.96
65472;DHT22;52068;50.710;14.492;2023-07-29T08:31:56;24.01;58.00
65472;DHT22;52068;50.710;14.492;2023-07-29T08:34:21;23.96;58.17
65472;DHT22;52068;50.710;14.492;2023-07-29T08:36:47;23.99;58.65
65472;DHT22;52068;50.710;14.492;2023-07-29T08:39:12;24.01;58.70
65472;DHT22;52068;50.710;14.492;2023-07-29T08:41:46;24.03;58.47
65472;DHT22;52068;50.710;14.492;2023-07-29T08:44:23;24.08;58.22
65472;DHT22;52068;50.710;14.492;2023-07-29T08:46:50;24.10;58.19
65472;DHT22;52068;50.710;14.492;2023-07-29T08:49:16;24.10;57.94
65472;DHT22;52068;50.710;14.492;2023-07-29T08:51:47;24.12;57.90
65472;DHT22;52068;50.710;14.492;2023-07-29T08:54:16;24.15;57.56
65472;DHT22;52068;50.710;14.492;2023-07-29T08:56:42;24.16;57.52
65472;DHT22;52068;50.710;14.492;2023-07-29T08:59:11;24.17;57.54
65472;DHT22;52068;50.710;14.492;2023-07-29T09:01:41;24.19;57.67
65472;DHT22;52068;50.710;14.492;2023-07-29T09:04:07;24.22;57.32
65472;DHT22;52068;50.710;14.492;2023-07-29T09:06:33;24.22;57.28
65472;DHT22;52068;50.710;14.492;2023-07-29T09:08:59;24.22;57.24
65472;DHT22;52068;50.710;14.492;2023-07-29T09:11:25;24.19;56.99
65472;DHT22;52068;50.710;14.492;2023-07-29T09:13:50;24.19;57.04
65472;DHT22;52068;50.710;14.492;2023-07-29T09:16:16;24.19;57.02
65472;DHT22;52068;50.710;14.492;2023-07-29T09:18:41;24.17;56.73
65472;DHT22;52068;50.710;14.492;2023-07-29T09:21:07;24.17;56.66
65472;DHT22;52068;50.710;14.492;2023-07-29T09:23:43;24.17;56.99
65472;DHT22;52068;50.710;14.492;2023-07-29T09:26:09;24.19;56.84
65472;DHT22;52068;50.710;14.492;2023-07-29T09:28:39;24.20;56.65
65472;DHT22;52068;50.710;14.492;2023-07-29T09:31:05;24.19;56.63
65472;DHT22;52068;50.710;14.492;2023-07-29T09:33:34;24.13;56.10
65472;DHT22;52068;50.710;14.492;2023-07-29T09:36:10;24.15;56.28
65472;DHT22;52068;50.710;14.492;2023-07-29T09:38:37;24.13;55.92
65472;DHT22;52068;50.710;14.492;2023-07-29T09:41:02;24.13;55.78
65472;DHT22;52068;50.710;14.492;2023-07-29T09:43:34;24.13;56.18
65472;DHT22;52068;50.710;14.492;2023-07-29T09:46:04;24.15;56.22
65472;DHT22;52068;50.710;14.492;2023-07-29T09:48:38;24.12;55.97
65472;DHT22;52068;50.710;14.492;2023-07-29T09:51:14;24.15;56.24
65472;DHT22;52068;50.710;14.492;2023-07-29T09:53:44;24.17;56.62
65472;DHT22;52068;50.710;14.492;2023-07-29T09:56:10;24.17;56.61
65472;DHT22;52068;50.710;14.492;2023-07-29T09:58:36;24.19;56.35
65472;DHT22;52068;50.710;14.492;2023-07-29T10:01:04;24.20;56.41
65472;DHT22;52068;50.710;14.492;2023-07-29T10:03:31;24.24;56.45
65472;DHT22;52068;50.710;14.492;2023-07-29T10:06:00;24.26;56.75
65472;DHT22;52068;50.710;14.492;2023-07-29T10:08:25;24.29;56.38
65472;DHT22;52068;50.710;14.492;2023-07-29T10:10:51;24.32;56.25
65472;DHT22;52068;50.710;14.492;2023-07-29T10:13:17;24.34;56.55
65472;DHT22;52068;50.710;14.492;2023-07-29T10:15:45;24.34;56.74
65472;DHT22;52068;50.710;14.492;2023-07-29T10:18:11;24.34;56.57
65472;DHT22;52068;50.710;14.492;2023-07-29T10:20:37;24.36;56.59
65472;DHT22;52068;50.710;14.492;2023-07-29T10:23:07;24.37;56.34
65472;DHT22;52068;50.710;14.492;2023-07-29T10:25:39;24.40;56.58
65472;DHT22;52068;50.710;14.492;2023-07-29T10:28:08;24.40;56.19
65472;DHT22;52068;50.710;14.492;2023-07-29T10:30:35;24.40;56.01
65472;DHT22;52068;50.710;14.492;2023-07-29T10:33:02;24.41;55.98
65472;DHT22;52068;50.710;14.492;2023-07-29T10:35:30;24.43;56.04
65472;DHT22;52068;50.710;14.492;2023-07-29T10:37:55;24.43;55.84
65472;DHT22;52068;50.710;14.492;2023-07-29T10:40:22;24.43;55.91
65472;DHT22;52068;50.710;14.492;2023-07-29T10:43:09;24.43;55.18
65472;DHT22;52068;50.710;14.492;2023-07-29T10:45:39;24.44;54.97
65472;DHT22;52068;50.710;14.492;2023-07-29T10:56:30;24.49;54.43
65472;DHT22;52068;50.710;14.492;2023-07-29T10:59:39;24.47;54.35
65472;DHT22;52068;50.710;14.492;2023-07-29T11:01:54;24.49;54.08
65472;DHT22;52068;50.710;14.492;2023-07-29T11:17:34;24.50;53.91
65472;DHT22;52068;50.710;14.492;2023-07-29T11:20:01;24.50;53.87
65472;DHT22;52068;50.710;14.492;2023-07-29T11:22:28;24.52;53.80
65472;DHT22;52068;50.710;14.492;2023-07-29T11:24:54;24.52;53.92
65472;DHT22;52068;50.710;14.492;2023-07-29T11:27:19;24.52;53.82
65472;DHT22;52068;50.710;14.492;2023-07-29T11:29:44;24.53;53.86
65472;DHT22;52068;50.710;14.492;2023-07-29T11:32:10;24.52;53.88
65472;DHT22;52068;50.710;14.492;2023-07-29T11:34:35;24.53;53.84
65472;DHT22;52068;50.710;14.492;2023-07-29T11:37:01;24.53;54.06
65472;DHT22;52068;50.710;14.492;2023-07-29T11:39:26;24.53;54.08
65472;DHT22;52068;50.710;14.492;2023-07-29T11:41:51;24.54;54.18
65472;DHT22;52068;50.710;14.492;2023-07-29T11:44:17;24.54;54.17
65472;DHT22;52068;50.710;14.492;2023-07-29T11:46:43;24.56;54.20
65472;DHT22;52068;50.710;14.492;2023-07-29T11:49:09;24.57;54.06
65472;DHT22;52068;50.710;14.492;2023-07-29T11:51:36;24.46;55.87
65472;DHT22;52068;50.710;14.492;2023-07-29T11:54:01;24.20;56.63
65472;DHT22;52068;50.710;14.492;2023-07-29T11:56:27;24.12;57.36
65472;DHT22;52068;50.710;14.492;2023-07-29T11:58:54;24.05;57.48
65472;DHT22;52068;50.710;14.492;2023-07-29T12:01:21;24.05;57.27
65472;DHT22;52068;50.710;14.492;2023-07-29T12:03:48;24.08;56.74
65472;DHT22;52068;50.710;14.492;2023-07-29T12:06:14;24.10;55.95
65472;DHT22;52068;50.710;14.492;2023-07-29T12:08:40;24.10;55.75
65472;DHT22;52068;50.710;14.492;2023-07-29T12:11:05;24.15;55.43
65472;DHT22;52068;50.710;14.492;2023-07-29T12:13:31;24.16;55.26
65472;DHT22;52068;50.710;14.492;2023-07-29T12:16:03;24.16;55.42
65472;DHT22;52068;50.710;14.492;2023-07-29T12:18:32;24.19;55.67
65472;DHT22;52068;50.710;14.492;2023-07-29T12:20:58;24.19;56.36
65472;DHT22;52068;50.710;14.492;2023-07-29T12:23:24;24.22;57.27
65472;DHT22;52068;50.710;14.492;2023-07-29T12:25:56;24.20;56.93
65472;DHT22;52068;50.710;14.492;2023-07-29T12:28:22;24.23;57.65
65472;DHT22;52068;50.710;14.492;2023-07-29T12:30:47;24.20;57.78
65472;DHT22;52068;50.710;14.492;2023-07-29T12:33:32;24.20;57.79
65472;DHT22;52068;50.710;14.492;2023-07-29T12:35:58;24.15;59.52
65472;DHT22;52068;50.710;14.492;2023-07-29T12:38:26;24.13;60.17
65472;DHT22;52068;50.710;14.492;2023-07-29T12:40:51;24.12;60.38
65472;DHT22;52068;50.710;14.492;2023-07-29T12:43:17;24.09;60.62
65472;DHT22;52068;50.710;14.492;2023-07-29T12:45:42;24.08;61.29
65472;DHT22;52068;50.710;14.492;2023-07-29T12:48:09;24.05;60.89
65472;DHT22;52068;50.710;14.492;2023-07-29T12:50:35;24.03;61.64
65472;DHT22;52068;50.710;14.492;2023-07-29T12:53:00;24.01;61.78
65472;DHT22;52068;50.710;14.492;2023-07-29T12:55:26;23.95;62.44
65472;DHT22;52068;50.710;14.492;2023-07-29T12:57:51;23.89;62.65
65472;DHT22;52068;50.710;14.492;2023-07-29T13:00:17;23.88;62.26
65472;DHT22;52068;50.710;14.492;2023-07-29T13:02:42;23.90;61.92
65472;DHT22;52068;50.710;14.492;2023-07-29T13:05:10;23.88;61.84
65472;DHT22;52068;50.710;14.492;2023-07-29T13:07:37;23.92;61.69
65472;DHT22;52068;50.710;14.492;2023-07-29T13:10:03;23.93;61.48
65472;DHT22;52068;50.710;14.492;2023-07-29T13:12:28;23.93;60.46
65472;DHT22;52068;50.710;14.492;2023-07-29T13:14:54;23.95;60.06
65472;DHT22;52068;50.710;14.492;2023-07-29T13:17:20;23.95;59.86
65472;DHT22;52068;50.710;14.492;2023-07-29T13:19:46;23.95;59.77
65472;DHT22;52068;50.710;14.492;2023-07-29T13:22:12;23.99;59.77
65472;DHT22;52068;50.710;14.492;2023-07-29T13:24:37;24.03;59.75
65472;DHT22;52068;50.710;14.492;2023-07-29T13:27:03;24.09;60.03
65472;DHT22;52068;50.710;14.492;2023-07-29T13:29:28;24.10;59.50
65472;DHT22;52068;50.710;14.492;2023-07-29T13:31:54;24.16;60.35
65472;DHT22;52068;50.710;14.492;2023-07-29T13:34:19;24.19;60.62
65472;DHT22;52068;50.710;14.492;2023-07-29T13:36:44;24.23;61.07
65472;DHT22;52068;50.710;14.492;2023-07-29T13:39:10;24.26;60.39
65472;DHT22;52068;50.710;14.492;2023-07-29T13:41:35;24.30;59.60
65472;DHT22;52068;50.710;14.492;2023-07-29T13:44:00;24.36;59.65
65472;DHT22;52068;50.710;14.492;2023-07-29T13:46:26;24.44;59.38
65472;DHT22;52068;50.710;14.492;2023-07-29T13:48:51;24.50;59.35
65472;DHT22;52068;50.710;14.492;2023-07-29T13:51:16;24.53;59.89
65472;DHT22;52068;50.710;14.492;2023-07-29T13:53:42;24.57;60.30
65472;DHT22;52068;50.710;14.492;2023-07-29T13:56:07;24.60;60.61
65472;DHT22;52068;50.710;14.492;2023-07-29T13:58:33;24.59;60.70
65472;DHT22;52068;50.710;14.492;2023-07-29T14:00:58;24.63;60.39
65472;DHT22;52068;50.710;14.492;2023-07-29T14:03:23;24.64;60.32
65472;DHT22;52068;50.710;14.492;2023-07-29T14:05:49;24.57;60.71
65472;DHT22;52068;50.710;14.492;2023-07-29T14:08:14;24.67;59.51
65472;DHT22;52068;50.710;14.492;2023-07-29T14:10:39;24.63;59.93
65472;DHT22;52068;50.710;14.492;2023-07-29T14:13:05;24.53;60.04
65472;DHT22;52068;50.710;14.492;2023-07-29T14:15:30;24.54;59.81
65472;DHT22;52068;50.710;14.492;2023-07-29T14:17:57;24.56;60.17
65472;DHT22;52068;50.710;14.492;2023-07-29T14:20:23;24.54;60.49
65472;DHT22;52068;50.710;14.492;2023-07-29T14:22:48;24.56;60.86
65472;DHT22;52068;50.710;14.492;2023-07-29T14:25:14;24.56;60.59
65472;DHT22;52068;50.710;14.492;2023-07-29T14:27:39;24.52;60.15
65472;DHT22;52068;50.710;14.492;2023-07-29T14:30:05;24.53;60.04
65472;DHT22;52068;50.710;14.492;2023-07-29T14:32:32;24.61;60.26
65472;DHT22;52068;50.710;14.492;2023-07-29T14:34:57;24.68;60.41
65472;DHT22;52068;50.710;14.492;2023-07-29T14:37:22;24.70;60.13
65472;DHT22;52068;50.710;14.492;2023-07-29T14:39:48;24.70;59.73
65472;DHT22;52068;50.710;14.492;2023-07-29T14:42:13;24.71;59.69
65472;DHT22;52068;50.710;14.492;2023-07-29T14:44:40;24.73;59.38
65472;DHT22;52068;50.710;14.492;2023-07-29T14:47:07;24.74;59.36
65472;DHT22;52068;50.710;14.492;2023-07-29T14:49:32;24.75;59.45
65472;DHT22;52068;50.710;14.492;2023-07-29T14:51:58;24.74;59.63
65472;DHT22;52068;50.710;14.492;2023-07-29T14:54:23;24.73;59.86
65472;DHT22;52068;50.710;14.492;2023-07-29T14:56:48;24.73;59.62
65472;DHT22;52068;50.710;14.492;2023-07-29T14:59:14;24.74;59.38
65472;DHT22;52068;50.710;14.492;2023-07-29T15:01:39;24.73;59.09
65472;DHT22;52068;50.710;14.492;2023-07-29T15:04:04;24.73;59.08
65472;DHT22;52068;50.710;14.492;2023-07-29T15:06:30;24.77;58.98
65472;DHT22;52068;50.710;14.492;2023-07-29T15:08:55;24.81;58.55
65472;DHT22;52068;50.710;14.492;2023-07-29T15:11:21;24.81;57.97
65472;DHT22;52068;50.710;14.492;2023-07-29T15:13:46;24.87;58.00
65472;DHT22;52068;50.710;14.492;2023-07-29T15:16:11;24.90;57.66
65472;DHT22;52068;50.710;14.492;2023-07-29T15:18:37;24.91;57.16
65472;DHT22;52068;50.710;14.492;2023-07-29T15:21:02;24.98;55.78
65472;DHT22;52068;50.710;14.492;2023-07-29T15:23:28;24.98;55.90
65472;DHT22;52068;50.710;14.492;2023-07-29T15:25:54;24.99;56.14
65472;DHT22;52068;50.710;14.492;2023-07-29T15:28:20;24.98;56.14
65472;DHT22;52068;50.710;14.492;2023-07-29T15:30:45;24.99;55.87
65472;DHT22;52068;50.710;14.492;2023-07-29T15:33:10;25.01;55.92
65472;DHT22;52068;50.710;14.492;2023-07-29T15:35:37;25.03;55.68
65472;DHT22;52068;50.710;14.492;2023-07-29T15:38:04;25.05;55.33